sensor_id;sensor_type;location;lat;lon;timestamp;pressure;altitude;pressure_sealevel;temperature;humidity
12486;BME280;6307;46.804;11.580;2023-01-28T00:00:10;-20933.94;;;2.73;35.94
12486;BME280;6307;46.804;11.580;2023-01-28T00:02:36;-20926.69;;;2.49;36.13
12486;BME280;6307;46.804;11.580;2023-01-28T00:05:03;-20934.22;;;2.74;36.49
12486;BME280;6307;46.804;11.580;2023-01-28T00:07:29;-20932.41;;;2.68;36.06
12486;BME280;6307;46.804;11.580;2023-01-28T00:09:55;-20932.25;;;2.68;36.41
12486;BME280;6307;46.804;11.580;2023-01-28T00:12:21;-20930.75;;;2.63;35.95
12486;BME280;6307;46.804;11.580;2023-01-28T00:14:48;-20927.91;;;2.53;36.38
12486;BME280;6307;46.804;11.580;2023-01-28T00:17:14;-20928.19;;;2.54;36.17
12486;BME280;6307;46.804;11.580;2023-01-28T00:19:40;-20928.03;;;2.54;36.38
12486;BME280;6307;46.804;11.580;2023-01-28T00:22:07;-20925.34;;;2.45;36.30
12486;BME280;6307;46.804;11.580;2023-01-28T00:24:33;-20930.00;;;2.60;36.40
12486;BME280;6307;46.804;11.580;2023-01-28T00:26:59;-20927.91;;;2.53;36.60
12486;BME280;6307;46.804;11.580;2023-01-28T00:29:25;-20931.50;;;2.65;36.21
12486;BME280;6307;46.804;11.580;2023-01-28T00:31:51;-20938.31;;;2.88;35.52
12486;BME280;6307;46.804;11.580;2023-01-28T00:34:17;-20935.59;;;2.79;36.38
12486;BME280;6307;46.804;11.580;2023-01-28T00:36:43;-20927.28;;;2.51;36.09
12486;BME280;6307;46.804;11.580;2023-01-28T00:39:12;-20933.63;;;2.72;35.57
12486;BME280;6307;46.804;11.580;2023-01-28T00:41:39;-20934.69;;;2.76;36.23
12486;BME280;6307;46.804;11.580;2023-01-28T00:44:07;-20934.38;;;2.75;35.86
12486;BME280;6307;46.804;11.580;2023-01-28T00:46:33;-20935.59;;;2.79;36.11
12486;BME280;6307;46.804;11.580;2023-01-28T00:48:59;-20937.53;;;2.85;35.83
12486;BME280;6307;46.804;11.580;2023-01-28T00:51:25;-20933.78;;;2.73;36.50
12486;BME280;6307;46.804;11.580;2023-01-28T00:53:52;-20930.16;;;2.61;36.24
12486;BME280;6307;46.804;11.580;2023-01-28T00:56:18;-20920.06;;;2.27;36.54
12486;BME280;6307;46.804;11.580;2023-01-28T00:58:44;-20927.59;;;2.52;36.48
12486;BME280;6307;46.804;11.580;2023-01-28T01:01:30;-20927.00;;;2.50;36.05
12486;BME280;6307;46.804;11.580;2023-01-28T01:03:56;-20932.72;;;2.69;36.15
12486;BME280;6307;46.804;11.580;2023-01-28T01:06:28;-20927.44;;;2.52;36.75
12486;BME280;6307;46.804;11.580;2023-01-28T01:08:59;-20928.19;;;2.54;36.08
12486;BME280;6307;46.804;11.580;2023-01-28T01:11:26;-20925.78;;;2.46;35.92
12486;BME280;6307;46.804;11.580;2023-01-28T01:13:54;-20925.03;;;2.44;36.69
12486;BME280;6307;46.804;11.580;2023-01-28T01:16:23;-20920.06;;;2.27;36.48
12486;BME280;6307;46.804;11.580;2023-01-28T01:18:54;-20923.66;;;2.39;36.18
12486;BME280;6307;46.804;11.580;2023-01-28T01:21:23;-20922.63;;;2.36;36.55
12486;BME280;6307;46.804;11.580;2023-01-28T01:23:51;-20918.09;;;2.21;37.14
12486;BME280;6307;46.804;11.580;2023-01-28T01:26:18;-20919.59;;;2.26;36.25
12486;BME280;6307;46.804;11.580;2023-01-28T01:28:44;-20924.44;;;2.42;35.99
12486;BME280;6307;46.804;11.580;2023-01-28T01:31:14;-20921.56;;;2.32;36.04
12486;BME280;6307;46.804;11.580;2023-01-28T01:33:42;-20920.19;;;2.28;36.36
12486;BME280;6307;46.804;11.580;2023-01-28T01:36:11;-20917.03;;;2.17;36.83
12486;BME280;6307;46.804;11.580;2023-01-28T01:38:39;-20909.63;;;1.93;36.81
12486;BME280;6307;46.804;11.580;2023-01-28T01:41:07;-20913.13;;;2.04;37.05
12486;BME280;6307;46.804;11.580;2023-01-28T01:49:24;-20917.03;;;2.17;36.42
12486;BME280;6307;46.804;11.580;2023-01-28T01:51:55;-20923.38;;;2.38;36.37
12486;BME280;6307;46.804;11.580;2023-01-28T01:54:46;-20920.97;;;2.30;36.69
12486;BME280;6307;46.804;11.580;2023-01-28T01:57:21;-20915.81;;;2.13;36.63
12486;BME280;6307;46.804;11.580;2023-01-28T01:59:52;-20912.22;;;2.01;37.02
12486;BME280;6307;46.804;11.580;2023-01-28T02:02:19;-20917.78;;;2.20;36.27
12486;BME280;6307;46.804;11.580;2023-01-28T02:04:47;-20913.56;;;2.06;36.51
12486;BME280;6307;46.804;11.580;2023-01-28T02:07:14;-20913.56;;;2.06;36.25
12486;BME280;6307;46.804;11.580;2023-01-28T02:09:42;-20925.63;;;2.46;36.05
12486;BME280;6307;46.804;11.580;2023-01-28T02:12:16;-20913.56;;;2.06;36.37
12486;BME280;6307;46.804;11.580;2023-01-28T02:15:05;-20916.28;;;2.15;36.45
12486;BME280;6307;46.804;11.580;2023-01-28T02:17:36;-20915.69;;;2.13;36.30
12486;BME280;6307;46.804;11.580;2023-01-28T02:20:05;-20918.53;;;2.22;36.13
12486;BME280;6307;46.804;11.580;2023-01-28T02:31:07;-20915.81;;;2.13;36.50
12486;BME280;6307;46.804;11.580;2023-01-28T02:39:22;-20905.13;;;1.78;36.79
12486;BME280;6307;46.804;11.580;2023-01-28T02:41:58;-20904.06;;;1.74;36.93
12486;BME280;6307;46.804;11.580;2023-01-28T02:44:31;-20918.41;;;2.22;36.76
12486;BME280;6307;46.804;11.580;2023-01-28T02:46:58;-20911.31;;;1.98;36.82
12486;BME280;6307;46.804;11.580;2023-01-28T02:49:48;-20912.66;;;2.03;36.87
12486;BME280;6307;46.804;11.580;2023-01-28T02:59:00;-20918.69;;;2.23;36.51
12486;BME280;6307;46.804;11.580;2023-01-28T03:02:11;-20911.16;;;1.98;37.05
12486;BME280;6307;46.804;11.580;2023-01-28T03:05:03;-20913.88;;;2.07;37.10
12486;BME280;6307;46.804;11.580;2023-01-28T03:07:32;-20910.84;;;1.97;37.45
12486;BME280;6307;46.804;11.580;2023-01-28T03:10:04;-20906.47;;;1.82;37.72
12486;BME280;6307;46.804;11.580;2023-01-28T03:12:36;-20910.41;;;1.95;37.59
12486;BME280;6307;46.804;11.580;2023-01-28T03:15:46;-20909.03;;;1.91;37.73
12486;BME280;6307;46.804;11.580;2023-01-28T03:18:42;-20912.22;;;2.01;37.41
12486;BME280;6307;46.804;11.580;2023-01-28T03:21:34;-20917.47;;;2.19;37.50
12486;BME280;6307;46.804;11.580;2023-01-28T03:24:29;-20901.50;;;1.66;38.28
12486;BME280;6307;46.804;11.580;2023-01-28T03:30:34;-20906.63;;;1.83;38.16
12486;BME280;6307;46.804;11.580;2023-01-28T03:33:24;-20901.94;;;1.67;38.35
12486;BME280;6307;46.804;11.580;2023-01-28T03:36:10;-20907.84;;;1.87;38.42
12486;BME280;6307;46.804;11.580;2023-01-28T03:38:55;-20908.75;;;1.90;38.02
12486;BME280;6307;46.804;11.580;2023-01-28T03:41:24;-20911.31;;;1.98;38.06
12486;BME280;6307;46.804;11.580;2023-01-28T03:43:51;-20908.13;;;1.88;38.30
12486;BME280;6307;46.804;11.580;2023-01-28T03:46:18;-20902.84;;;1.70;38.36
12486;BME280;6307;46.804;11.580;2023-01-28T03:48:45;-20909.19;;;1.91;38.18
12486;BME280;6307;46.804;11.580;2023-01-28T03:51:11;-20906.63;;;1.83;38.26
12486;BME280;6307;46.804;11.580;2023-01-28T03:53:38;-20908.13;;;1.88;38.45
12486;BME280;6307;46.804;11.580;2023-01-28T03:56:05;-20909.94;;;1.94;38.52
12486;BME280;6307;46.804;11.580;2023-01-28T03:58:32;-20909.19;;;1.91;38.36
12486;BME280;6307;46.804;11.580;2023-01-28T04:01:17;-20910.84;;;1.97;38.36
12486;BME280;6307;46.804;11.580;2023-01-28T04:03:44;-20916.44;;;2.15;38.22
12486;BME280;6307;46.804;11.580;2023-01-28T04:06:10;-20909.34;;;1.92;38.51
12486;BME280;6307;46.804;11.580;2023-01-28T04:08:36;-20904.38;;;1.75;39.02
12486;BME280;6307;46.804;11.580;2023-01-28T04:11:02;-20905.41;;;1.79;38.84
12486;BME280;6307;46.804;11.580;2023-01-28T04:13:41;-20906.47;;;1.82;38.96
12486;BME280;6307;46.804;11.580;2023-01-28T04:16:09;-20906.78;;;1.83;38.74
12486;BME280;6307;46.804;11.580;2023-01-28T04:18:36;-20905.72;;;1.80;39.07
12486;BME280;6307;46.804;11.580;2023-01-28T04:21:02;-20904.22;;;1.75;39.05
12486;BME280;6307;46.804;11.580;2023-01-28T04:23:29;-20904.38;;;1.75;38.85
12486;BME280;6307;46.804;11.580;2023-01-28T04:25:55;-20907.38;;;1.85;38.76
12486;BME280;6307;46.804;11.580;2023-01-28T04:28:21;-20904.66;;;1.76;39.57
12486;BME280;6307;46.804;11.580;2023-01-28T04:30:47;-20895.91;;;1.47;40.02
12486;BME280;6307;46.804;11.580;2023-01-28T04:33:14;-20903.44;;;1.72;39.60
12486;BME280;6307;46.804;11.580;2023-01-28T04:35:40;-20901.34;;;1.65;39.58
12486;BME280;6307;46.804;11.580;2023-01-28T04:38:07;-20903.59;;;1.73;39.35
12486;BME280;6307;46.804;11.580;2023-01-28T04:40:33;-20901.78;;;1.67;39.82
12486;BME280;6307;46.804;11.580;2023-01-28T04:42:59;-20900.28;;;1.62;40.08
12486;BME280;6307;46.804;11.580;2023-01-28T04:45:25;-20901.94;;;1.67;40.34
12486;BME280;6307;46.804;11.580;2023-01-28T04:47:51;-20895.47;;;1.46;40.27
12486;BME280;6307;46.804;11.580;2023-01-28T04:50:17;-20895.59;;;1.46;40.32
12486;BME280;6307;46.804;11.580;2023-01-28T04:52:43;-20898.31;;;1.55;40.07
12486;BME280;6307;46.804;11.580;2023-01-28T04:55:10;-20902.84;;;1.70;40.19
12486;BME280;6307;46.804;11.580;2023-01-28T04:57:36;-20901.94;;;1.67;40.69
12486;BME280;6307;46.804;11.580;2023-01-28T05:00:03;-20900.28;;;1.62;40.34
12486;BME280;6307;46.804;11.580;2023-01-28T05:02:30;-20899.38;;;1.59;41.09
12486;BME280;6307;46.804;11.580;2023-01-28T05:04:56;-20903.00;;;1.71;40.83
12486;BME280;6307;46.804;11.580;2023-01-28T05:07:22;-20898.31;;;1.55;40.74
12486;BME280;6307;46.804;11.580;2023-01-28T05:09:48;-20892.75;;;1.37;41.08
12486;BME280;6307;46.804;11.580;2023-01-28T05:12:14;-20895.47;;;1.46;41.00
12486;BME280;6307;46.804;11.580;2023-01-28T05:14:40;-20899.22;;;1.58;41.95
12486;BME280;6307;46.804;11.580;2023-01-28T05:17:06;-20899.22;;;1.58;40.63
12486;BME280;6307;46.804;11.580;2023-01-28T05:19:33;-20899.22;;;1.58;41.11
12486;BME280;6307;46.804;11.580;2023-01-28T05:21:59;-20893.19;;;1.38;41.27
12486;BME280;6307;46.804;11.580;2023-01-28T05:24:25;-20896.06;;;1.48;41.01
12486;BME280;6307;46.804;11.580;2023-01-28T05:26:51;-20892.91;;;1.37;41.11
12486;BME280;6307;46.804;11.580;2023-01-28T05:29:17;-20892.75;;;1.37;41.37
12486;BME280;6307;46.804;11.580;2023-01-28T05:31:43;-20887.00;;;1.18;41.33
12486;BME280;6307;46.804;11.580;2023-01-28T05:34:11;-20890.19;;;1.28;42.01
12486;BME280;6307;46.804;11.580;2023-01-28T05:36:37;-20888.22;;;1.22;41.19
12486;BME280;6307;46.804;11.580;2023-01-28T05:39:05;-20895.59;;;1.46;41.09
12486;BME280;6307;46.804;11.580;2023-01-28T05:41:32;-20894.25;;;1.42;41.25
12486;BME280;6307;46.804;11.580;2023-01-28T05:43:59;-20893.50;;;1.39;41.17
12486;BME280;6307;46.804;11.580;2023-01-28T05:46:25;-20889.41;;;1.26;41.53
12486;BME280;6307;46.804;11.580;2023-01-28T05:48:51;-20891.38;;;1.32;41.27
12486;BME280;6307;46.804;11.580;2023-01-28T05:51:17;-20890.47;;;1.29;41.55
12486;BME280;6307;46.804;11.580;2023-01-28T05:53:43;-20891.22;;;1.32;41.25
12486;BME280;6307;46.804;11.580;2023-01-28T05:56:09;-20890.78;;;1.30;41.39
12486;BME280;6307;46.804;11.580;2023-01-28T05:58:36;-20882.94;;;1.04;41.38
12486;BME280;6307;46.804;11.580;2023-01-28T06:01:02;-20894.56;;;1.43;41.53
12486;BME280;6307;46.804;11.580;2023-01-28T06:03:28;-20891.09;;;1.31;41.35
12486;BME280;6307;46.804;11.580;2023-01-28T06:05:55;-20892.75;;;1.37;41.63
12486;BME280;6307;46.804;11.580;2023-01-28T06:08:21;-20887.91;;;1.21;41.62
12486;BME280;6307;46.804;11.580;2023-01-28T06:10:47;-20888.22;;;1.22;41.49
12486;BME280;6307;46.804;11.580;2023-01-28T06:13:13;-20881.88;;;1.01;42.05
12486;BME280;6307;46.804;11.580;2023-01-28T06:15:39;-20883.38;;;1.06;42.26
12486;BME280;6307;46.804;11.580;2023-01-28T06:18:05;-20887.91;;;1.21;41.61
12486;BME280;6307;46.804;11.580;2023-01-28T06:20:31;-20884.75;;;1.10;42.20
12486;BME280;6307;46.804;11.580;2023-01-28T06:22:57;-20888.97;;;1.24;41.80
12486;BME280;6307;46.804;11.580;2023-01-28T06:25:23;-20893.66;;;1.40;41.69
12486;BME280;6307;46.804;11.580;2023-01-28T06:27:49;-20888.38;;;1.22;41.69
12486;BME280;6307;46.804;11.580;2023-01-28T06:30:16;-20890.78;;;1.30;41.54
12486;BME280;6307;46.804;11.580;2023-01-28T06:32:42;-20884.75;;;1.10;42.37
12486;BME280;6307;46.804;11.580;2023-01-28T06:35:09;-20876.59;;;0.83;42.56
12486;BME280;6307;46.804;11.580;2023-01-28T06:37:36;-20891.84;;;1.34;42.27
12486;BME280;6307;46.804;11.580;2023-01-28T06:40:02;-20884.91;;;1.11;42.41
12486;BME280;6307;46.804;11.580;2023-01-28T06:42:29;-20887.91;;;1.21;42.63
12486;BME280;6307;46.804;11.580;2023-01-28T06:44:55;-20883.22;;;1.05;42.63
12486;BME280;6307;46.804;11.580;2023-01-28T06:47:21;-20886.41;;;1.16;42.69
12486;BME280;6307;46.804;11.580;2023-01-28T06:49:47;-20885.34;;;1.12;42.78
12486;BME280;6307;46.804;11.580;2023-01-28T06:52:13;-20886.09;;;1.15;42.78
12486;BME280;6307;46.804;11.580;2023-01-28T06:54:39;-20882.19;;;1.02;42.81
12486;BME280;6307;46.804;11.580;2023-01-28T06:57:05;-20883.09;;;1.05;42.56
12486;BME280;6307;46.804;11.580;2023-01-28T06:59:31;-20888.81;;;1.24;42.66
12486;BME280;6307;46.804;11.580;2023-01-28T07:01:58;-20881.56;;;1.00;42.80
12486;BME280;6307;46.804;11.580;2023-01-28T07:04:24;-20883.53;;;1.06;42.81
12486;BME280;6307;46.804;11.580;2023-01-28T07:06:50;-20885.34;;;1.12;42.96
12486;BME280;6307;46.804;11.580;2023-01-28T07:09:16;-20886.09;;;1.15;42.91
12486;BME280;6307;46.804;11.580;2023-01-28T07:11:42;-20887.31;;;1.19;42.66
12486;BME280;6307;46.804;11.580;2023-01-28T07:14:08;-20887.00;;;1.18;43.07
12486;BME280;6307;46.804;11.580;2023-01-28T07:16:34;-20883.53;;;1.06;42.67
12486;BME280;6307;46.804;11.580;2023-01-28T07:19:00;-20890.31;;;1.29;42.52
12486;BME280;6307;46.804;11.580;2023-01-28T07:21:26;-20882.78;;;1.04;42.87
12486;BME280;6307;46.804;11.580;2023-01-28T07:23:52;-20889.28;;;1.25;42.75
12486;BME280;6307;46.804;11.580;2023-01-28T07:26:18;-20886.84;;;1.17;42.40
12486;BME280;6307;46.804;11.580;2023-01-28T07:28:44;-20883.53;;;1.06;42.87
12486;BME280;6307;46.804;11.580;2023-01-28T07:31:11;-20890.31;;;1.29;42.75
12486;BME280;6307;46.804;11.580;2023-01-28T07:33:37;-20885.78;;;1.14;42.97
12486;BME280;6307;46.804;11.580;2023-01-28T07:36:03;-20889.41;;;1.26;42.89
12486;BME280;6307;46.804;11.580;2023-01-28T07:38:29;-20888.97;;;1.24;42.73
12486;BME280;6307;46.804;11.580;2023-01-28T07:40:55;-20889.41;;;1.26;42.81
12486;BME280;6307;46.804;11.580;2023-01-28T07:43:21;-20883.22;;;1.05;43.09
12486;BME280;6307;46.804;11.580;2023-01-28T07:45:47;-20892.91;;;1.37;43.18
12486;BME280;6307;46.804;11.580;2023-01-28T07:48:14;-20891.09;;;1.31;43.17
12486;BME280;6307;46.804;11.580;2023-01-28T07:50:40;-20895.00;;;1.44;42.97
12486;BME280;6307;46.804;11.580;2023-01-28T07:53:09;-20895.75;;;1.47;42.77
12486;BME280;6307;46.804;11.580;2023-01-28T07:55:37;-20887.47;;;1.19;43.35
12486;BME280;6307;46.804;11.580;2023-01-28T07:58:05;-20892.00;;;1.34;43.45
12486;BME280;6307;46.804;11.580;2023-01-28T08:00:34;-20889.28;;;1.25;43.16
12486;BME280;6307;46.804;11.580;2023-01-28T08:03:04;-20882.03;;;1.01;43.49
12486;BME280;6307;46.804;11.580;2023-01-28T08:05:48;-20888.22;;;1.22;43.01
12486;BME280;6307;46.804;11.580;2023-01-28T08:08:16;-20889.56;;;1.26;43.09
12486;BME280;6307;46.804;11.580;2023-01-28T08:10:43;-20893.03;;;1.38;42.78
12486;BME280;6307;46.804;11.580;2023-01-28T08:13:10;-20895.59;;;1.46;42.60
12486;BME280;6307;46.804;11.580;2023-01-28T08:15:38;-20894.41;;;1.42;42.82
12486;BME280;6307;46.804;11.580;2023-01-28T08:18:06;-20898.19;;;1.55;43.06
12486;BME280;6307;46.804;11.580;2023-01-28T08:20:34;-20890.19;;;1.28;42.90
12486;BME280;6307;46.804;11.580;2023-01-28T08:23:17;-20893.03;;;1.38;42.90
12486;BME280;6307;46.804;11.580;2023-01-28T08:25:45;-20888.66;;;1.23;42.95
12486;BME280;6307;46.804;11.580;2023-01-28T08:28:13;-20898.63;;;1.56;42.94
12486;BME280;6307;46.804;11.580;2023-01-28T08:30:41;-20880.66;;;0.97;43.53
12486;BME280;6307;46.804;11.580;2023-01-28T08:33:09;-20886.84;;;1.17;43.56
12486;BME280;6307;46.804;11.580;2023-01-28T08:35:37;-20888.06;;;1.21;43.28
12486;BME280;6307;46.804;11.580;2023-01-28T08:38:05;-20889.41;;;1.26;43.51
12486;BME280;6307;46.804;11.580;2023-01-28T08:40:32;-20890.03;;;1.28;43.08
12486;BME280;6307;46.804;11.580;2023-01-28T08:42:59;-20892.75;;;1.37;43.64
12486;BME280;6307;46.804;11.580;2023-01-28T08:45:26;-20900.13;;;1.61;43.25
12486;BME280;6307;46.804;11.580;2023-01-28T08:47:55;-20899.97;;;1.61;43.37
12486;BME280;6307;46.804;11.580;2023-01-28T08:50:25;-20892.75;;;1.37;43.73
12486;BME280;6307;46.804;11.580;2023-01-28T08:53:01;-20893.94;;;1.41;44.03
12486;BME280;6307;46.804;11.580;2023-01-28T08:55:29;-20901.50;;;1.66;43.39
12486;BME280;6307;46.804;11.580;2023-01-28T08:57:55;-20890.19;;;1.28;43.88
12486;BME280;6307;46.804;11.580;2023-01-28T09:00:22;-20896.97;;;1.51;43.41
12486;BME280;6307;46.804;11.580;2023-01-28T09:02:51;-20899.38;;;1.59;43.49
12486;BME280;6307;46.804;11.580;2023-01-28T09:05:20;-20896.22;;;1.48;43.81
12486;BME280;6307;46.804;11.580;2023-01-28T09:07:47;-20909.19;;;1.91;42.74
12486;BME280;6307;46.804;11.580;2023-01-28T09:10:14;-20906.78;;;1.83;42.85
12486;BME280;6307;46.804;11.580;2023-01-28T09:12:41;-20915.81;;;2.13;42.35
12486;BME280;6307;46.804;11.580;2023-01-28T09:15:08;-20915.22;;;2.11;41.83
12486;BME280;6307;46.804;11.580;2023-01-28T09:17:35;-20917.34;;;2.18;42.33
12486;BME280;6307;46.804;11.580;2023-01-28T09:20:01;-20920.97;;;2.30;41.91
12486;BME280;6307;46.804;11.580;2023-01-28T09:22:28;-20916.88;;;2.17;42.24
12486;BME280;6307;46.804;11.580;2023-01-28T09:24:54;-20916.28;;;2.15;41.90
12486;BME280;6307;46.804;11.580;2023-01-28T09:27:21;-20922.78;;;2.36;41.55
12486;BME280;6307;46.804;11.580;2023-01-28T09:29:47;-20915.22;;;2.11;42.36
12486;BME280;6307;46.804;11.580;2023-01-28T09:32:13;-20925.34;;;2.45;41.16
12486;BME280;6307;46.804;11.580;2023-01-28T09:34:39;-20929.84;;;2.60;40.95
12486;BME280;6307;46.804;11.580;2023-01-28T09:37:05;-20927.59;;;2.52;40.96
12486;BME280;6307;46.804;11.580;2023-01-28T09:39:31;-20926.09;;;2.47;40.79
12486;BME280;6307;46.804;11.580;2023-01-28T09:45:24;-20925.94;;;2.47;41.02
12486;BME280;6307;46.804;11.580;2023-01-28T09:47:58;-20930.75;;;2.63;40.46
12486;BME280;6307;46.804;11.580;2023-01-28T09:50:39;-20928.78;;;2.56;40.22
12486;BME280;6307;46.804;11.580;2023-01-28T09:53:15;-20931.38;;;2.65;40.55
12486;BME280;6307;46.804;11.580;2023-01-28T09:55:57;-20933.47;;;2.72;40.06
12486;BME280;6307;46.804;11.580;2023-01-28T09:58:27;-20930.44;;;2.62;40.07
12486;BME280;6307;46.804;11.580;2023-01-28T10:04:20;-20936.03;;;2.80;39.22
12486;BME280;6307;46.804;11.580;2023-01-28T10:15:05;-20936.19;;;2.81;39.53
12486;BME280;6307;46.804;11.580;2023-01-28T10:17:51;-20937.53;;;2.85;39.53
12486;BME280;6307;46.804;11.580;2023-01-28T10:20:26;-20937.41;;;2.85;39.37
12486;BME280;6307;46.804;11.580;2023-01-28T10:23:04;-20944.03;;;3.07;38.97
12486;BME280;6307;46.804;11.580;2023-01-28T10:25:36;-20946.59;;;3.15;38.65
12486;BME280;6307;46.804;11.580;2023-01-28T10:28:13;-20950.97;;;3.30;38.37
12486;BME280;6307;46.804;11.580;2023-01-28T10:30:49;-20949.75;;;3.26;38.69
12486;BME280;6307;46.804;11.580;2023-01-28T10:33:19;-20948.25;;;3.21;38.97
12486;BME280;6307;46.804;11.580;2023-01-28T10:35:59;-20953.06;;;3.37;38.49
12486;BME280;6307;46.804;11.580;2023-01-28T10:38:26;-20951.25;;;3.31;38.48
12486;BME280;6307;46.804;11.580;2023-01-28T10:40:58;-20958.66;;;3.55;38.33
12486;BME280;6307;46.804;11.580;2023-01-28T10:43:31;-20962.41;;;3.68;37.90
12486;BME280;6307;46.804;11.580;2023-01-28T10:49:12;-20965.13;;;3.77;37.69
12486;BME280;6307;46.804;11.580;2023-01-28T10:51:43;-20968.91;;;3.89;37.59
12486;BME280;6307;46.804;11.580;2023-01-28T10:54:26;-20971.00;;;3.96;37.04
12486;BME280;6307;46.804;11.580;2023-01-28T10:56:59;-20968.00;;;3.86;37.71
12486;BME280;6307;46.804;11.580;2023-01-28T10:59:32;-20961.97;;;3.66;37.88
12486;BME280;6307;46.804;11.580;2023-01-28T11:05:17;-20972.22;;;4.00;37.39
12486;BME280;6307;46.804;11.580;2023-01-28T11:07:46;-20970.84;;;3.96;37.83
12486;BME280;6307;46.804;11.580;2023-01-28T11:10:31;-20972.06;;;4.00;37.40
12486;BME280;6307;46.804;11.580;2023-01-28T11:13:03;-20977.47;;;4.18;37.06
12486;BME280;6307;46.804;11.580;2023-01-28T11:15:30;-20982.44;;;4.34;36.55
12486;BME280;6307;46.804;11.580;2023-01-28T11:18:00;-20996.75;;;4.82;36.81
12486;BME280;6307;46.804;11.580;2023-01-28T11:20:35;-20989.69;;;4.58;36.55
12486;BME280;6307;46.804;11.580;2023-01-28T11:23:04;-20978.38;;;4.21;36.88
12486;BME280;6307;46.804;11.580;2023-01-28T11:25:35;-20991.19;;;4.63;36.72
12486;BME280;6307;46.804;11.580;2023-01-28T11:28:06;-20982.00;;;4.33;37.34
12486;BME280;6307;46.804;11.580;2023-01-28T11:30:40;-20976.88;;;4.16;37.72
12486;BME280;6307;46.804;11.580;2023-01-28T11:33:15;-20984.41;;;4.41;37.37
12486;BME280;6307;46.804;11.580;2023-01-28T11:36:17;-20977.34;;;4.17;37.60
12486;BME280;6307;46.804;11.580;2023-01-28T11:38:55;-20978.84;;;4.22;37.41
12486;BME280;6307;46.804;11.580;2023-01-28T11:41:36;-20982.59;;;4.35;37.55
12486;BME280;6307;46.804;11.580;2023-01-28T11:44:21;-20977.78;;;4.19;38.30
12486;BME280;6307;46.804;11.580;2023-01-28T11:46:59;-20974.47;;;4.08;38.15
12486;BME280;6307;46.804;11.580;2023-01-28T12:07:42;-20989.22;;;4.57;38.14
12486;BME280;6307;46.804;11.580;2023-01-28T12:10:42;-20987.13;;;4.50;38.16
12486;BME280;6307;46.804;11.580;2023-01-28T12:13:55;-20986.06;;;4.46;38.20
12486;BME280;6307;46.804;11.580;2023-01-28T12:16:41;-20985.63;;;4.45;37.78
12486;BME280;6307;46.804;11.580;2023-01-28T12:22:46;-20990.88;;;4.62;37.58
12486;BME280;6307;46.804;11.580;2023-01-28T12:25:31;-20994.06;;;4.73;37.63
12486;BME280;6307;46.804;11.580;2023-01-28T12:43:00;-21007.59;;;5.18;36.96
12486;BME280;6307;46.804;11.580;2023-01-28T12:46:00;-21006.69;;;5.15;37.95
12486;BME280;6307;46.804;11.580;2023-01-28T12:48:43;-20995.41;;;4.77;37.74
12486;BME280;6307;46.804;11.580;2023-01-28T12:51:56;-21002.34;;;5.00;37.21
12486;BME280;6307;46.804;11.580;2023-01-28T12:57:22;-20996.91;;;4.82;37.88
12486;BME280;6307;46.804;11.580;2023-01-28T13:00:02;-21007.00;;;5.16;37.73
12486;BME280;6307;46.804;11.580;2023-01-28T13:05:54;-21007.75;;;5.18;38.05
12486;BME280;6307;46.804;11.580;2023-01-28T13:08:27;-21013.94;;;5.39;37.44
12486;BME280;6307;46.804;11.580;2023-01-28T13:10:56;-21015.88;;;5.45;37.19
12486;BME280;6307;46.804;11.580;2023-01-28T13:13:33;-21014.97;;;5.42;37.00
12486;BME280;6307;46.804;11.580;2023-01-28T13:16:03;-21020.09;;;5.59;36.83
12486;BME280;6307;46.804;11.580;2023-01-28T13:24:02;-21004.44;;;5.07;37.80
12486;BME280;6307;46.804;11.580;2023-01-28T13:26:47;-21018.44;;;5.54;37.79
12486;BME280;6307;46.804;11.580;2023-01-28T13:31:52;-21011.66;;;5.31;37.35
12486;BME280;6307;46.804;11.580;2023-01-28T13:36:59;-21022.19;;;5.66;38.20
12486;BME280;6307;46.804;11.580;2023-01-28T13:39:28;-21016.03;;;5.46;37.67
12486;BME280;6307;46.804;11.580;2023-01-28T13:44:50;-21023.09;;;5.69;38.52
12486;BME280;6307;46.804;11.580;2023-01-28T13:47:24;-21014.81;;;5.42;37.74
12486;BME280;6307;46.804;11.580;2023-01-28T13:49:58;-21016.50;;;5.47;37.27
12486;BME280;6307;46.804;11.580;2023-01-28T13:52:33;-21024.75;;;5.75;38.22
12486;BME280;6307;46.804;11.580;2023-01-28T14:09:06;-21022.06;;;5.66;37.44
12486;BME280;6307;46.804;11.580;2023-01-28T14:17:58;-21021.59;;;5.64;37.19
12486;BME280;6307;46.804;11.580;2023-01-28T14:20:31;-21018.59;;;5.54;37.40
12486;BME280;6307;46.804;11.580;2023-01-28T14:23:20;-21027.19;;;5.83;36.70
12486;BME280;6307;46.804;11.580;2023-01-28T14:25:55;-21033.50;;;6.04;36.59
12486;BME280;6307;46.804;11.580;2023-01-28T14:28:38;-21026.56;;;5.81;37.40
12486;BME280;6307;46.804;11.580;2023-01-28T14:31:33;-21021.44;;;5.64;37.45
12486;BME280;6307;46.804;11.580;2023-01-28T14:36:58;-21022.06;;;5.66;37.28
12486;BME280;6307;46.804;11.580;2023-01-28T14:39:31;-21026.41;;;5.80;36.84
12486;BME280;6307;46.804;11.580;2023-01-28T14:42:31;-21024.16;;;5.73;37.05
12486;BME280;6307;46.804;11.580;2023-01-28T14:45:40;-21024.31;;;5.73;36.71
12486;BME280;6307;46.804;11.580;2023-01-28T14:49:18;-21021.44;;;5.64;37.05
12486;BME280;6307;46.804;11.580;2023-01-28T14:55:28;-21024.91;;;5.75;36.55
12486;BME280;6307;46.804;11.580;2023-01-28T14:58:21;-21021.28;;;5.63;36.71
12486;BME280;6307;46.804;11.580;2023-01-28T15:01:01;-21017.84;;;5.52;37.15
12486;BME280;6307;46.804;11.580;2023-01-28T15:03:28;-21018.13;;;5.53;37.22
12486;BME280;6307;46.804;11.580;2023-01-28T15:06:10;-21017.53;;;5.51;36.94
12486;BME280;6307;46.804;11.580;2023-01-28T15:08:39;-21011.06;;;5.29;37.06
12486;BME280;6307;46.804;11.580;2023-01-28T15:11:08;-21009.56;;;5.24;37.22
12486;BME280;6307;46.804;11.580;2023-01-28T15:13:40;-21008.97;;;5.22;36.97
12486;BME280;6307;46.804;11.580;2023-01-28T15:16:24;-21011.66;;;5.31;37.17
12486;BME280;6307;46.804;11.580;2023-01-28T15:18:58;-21007.31;;;5.17;37.03
12486;BME280;6307;46.804;11.580;2023-01-28T15:21:28;-21002.50;;;5.01;37.04
12486;BME280;6307;46.804;11.580;2023-01-28T15:23:59;-21007.16;;;5.16;37.21
12486;BME280;6307;46.804;11.580;2023-01-28T15:26:30;-21011.81;;;5.32;36.70
12486;BME280;6307;46.804;11.580;2023-01-28T15:28:58;-21005.34;;;5.10;37.14
12486;BME280;6307;46.804;11.580;2023-01-28T15:31:31;-21006.41;;;5.14;37.16
12486;BME280;6307;46.804;11.580;2023-01-28T15:36:41;-21002.50;;;5.01;37.02
12486;BME280;6307;46.804;11.580;2023-01-28T15:39:19;-20998.13;;;4.86;37.49